Market Lavington, United Kingdom
Current Conditions -  °F | °C
As of 9:50 PM on Thursday 20 Nov 2014 (Local Time) from EGDM Reporting Station
Haze Haze  
Wind Chill: 40°   Ceiling: 700
Heat Index: 45°   Visibility: 3mi
Dew Point: 43°   Wind: 9mph
Humidity: 93%   Direction: 90°E
Pressure: 30.21"   Gusts: NA
Location:  51.29°N, 1.98°W
Report Text: EGDM 202150Z AUTO 09008KT 5000 HZ OVC007/// 07/06 Q1023
Loading
Personal Weather Stations






























Interactive Weather Map New forecast layout! Learn more

10-Day Weather Forecast

Advertisements
Track Severe Weather on mobile